Aviation Digital Data Service (ADDS)

Output produced by METARs form (1047 UTC 07 December 2022)
found at http://www.aviationweather.gov/metar/data/
 
METAR text: LFMY 071030Z AUTO 34008KT 320V020 CAVOK 07/01 Q1013 TEMPO 33015G25KT
Conditions at: LFMY (SALON (FAFB) , FR) observed 1030 UTC 07 December 2022
Temperature: 7.0°C (45°F)
Dewpoint: 1.0°C (34°F) [RH = 66%]
Pressure (altimeter): 29.91 inches Hg (1013.0 mb)
Winds: from the NNW (340 degrees) at 9 MPH (8 knots; 4.1 m/s)
Visibility: 6 or more miles (10+ km)
Ceiling: ceiling and visibility are OK
Clouds: unknown
Weather: no significant weather observed at this time

METAR text: LFMY 071000Z AUTO 34011KT CAVOK 07/01 Q1014 TEMPO 33015G25KT
Conditions at: LFMY (SALON (FAFB) , FR) observed 1000 UTC 07 December 2022
Temperature: 7.0°C (45°F)
Dewpoint: 1.0°C (34°F) [RH = 66%]
Pressure (altimeter): 29.94 inches Hg (1014.0 mb)
Winds: from the NNW (340 degrees) at 13 MPH (11 knots; 5.7 m/s)
Visibility: 6 or more miles (10+ km)
Ceiling: ceiling and visibility are OK
Clouds: unknown
Weather: no significant weather observed at this time

Forecast for: LFMY (SALON (FAFB) , FR)
Text: TAF LFMY 070800Z 0709/0809 34012KT CAVOK TX09/0713Z TNM01/0803Z
Forecast period: 0900 to 1800 UTC 07 December 2022
Forecast type: FROM: standard forecast or significant change
Winds: from the NNW (340 degrees) at 14 MPH (12 knots; 6.2 m/s)
Visibility: 6 or more miles (10+ km)
Ceiling: unknown
Clouds: missing
Weather: no significant weather forecast for this period
Text: PROB30
Forecast period: 1000 to 1500 UTC 07 December 2022
Forecast type: TEMPORARY: The following changes expected for less than half the time period
Winds: from the NNW (330 degrees) at 17 MPH (15 knots; 7.7 m/s)
gusting to 29 MPH (25 knots; 12.9 m/s)
Visibility: missing
Ceiling: unknown
Clouds: missing
Weather: no significant weather forecast for this period
Text: TEMPO 0710/0715 33015G25KT
Forecast period: 1800 UTC 07 December 2022 to 0900 UTC 08 December 2022
Forecast type: BECOMING: Conditions expected to become as follows by 2000 UTC 07 December 2022
Winds: from the N (350 degrees) at 6 MPH (5 knots; 2.6 m/s)
Visibility: 6 or more miles (10+ km)
Ceiling: unknown
Clouds: missing
Weather: no significant weather forecast for this period